sensor_id;sensor_type;location;lat;lon;timestamp;P1;durP1;ratioP1;P2;durP2;ratioP2
28756;SDS011;44294;48.282;14.282;2023-01-13T00:00:00;3.60;;;2.80;;
28756;SDS011;44294;48.282;14.282;2023-01-13T00:02:48;3.57;;;2.50;;
28756;SDS011;44294;48.282;14.282;2023-01-13T00:05:36;3.10;;;2.40;;
28756;SDS011;44294;48.282;14.282;2023-01-13T00:08:23;4.07;;;2.60;;
28756;SDS011;44294;48.282;14.282;2023-01-13T00:11:11;4.07;;;2.90;;
28756;SDS011;44294;48.282;14.282;2023-01-13T00:13:58;6.27;;;2.70;;
28756;SDS011;44294;48.282;14.282;2023-01-13T00:16:45;5.80;;;3.33;;
28756;SDS011;44294;48.282;14.282;2023-01-13T00:19:32;6.00;;;3.53;;
28756;SDS011;44294;48.282;14.282;2023-01-13T00:22:20;6.83;;;3.27;;
28756;SDS011;44294;48.282;14.282;2023-01-13T00:25:07;5.83;;;3.20;;
28756;SDS011;44294;48.282;14.282;2023-01-13T00:27:54;4.97;;;3.27;;
28756;SDS011;44294;48.282;14.282;2023-01-13T00:30:42;3.80;;;3.27;;
28756;SDS011;44294;48.282;14.282;2023-01-13T00:33:29;4.20;;;3.00;;
28756;SDS011;44294;48.282;14.282;2023-01-13T00:36:18;4.73;;;2.83;;
28756;SDS011;44294;48.282;14.282;2023-01-13T00:39:05;4.33;;;3.10;;
28756;SDS011;44294;48.282;14.282;2023-01-13T00:41:53;4.50;;;3.20;;
28756;SDS011;44294;48.282;14.282;2023-01-13T00:44:58;3.27;;;2.87;;
28756;SDS011;44294;48.282;14.282;2023-01-13T00:47:45;5.60;;;3.20;;
28756;SDS011;44294;48.282;14.282;2023-01-13T00:50:33;3.77;;;3.00;;
28756;SDS011;44294;48.282;14.282;2023-01-13T00:53:20;4.40;;;3.03;;
28756;SDS011;44294;48.282;14.282;2023-01-13T00:56:12;3.67;;;2.97;;
28756;SDS011;44294;48.282;14.282;2023-01-13T00:58:56;5.70;;;3.33;;
28756;SDS011;44294;48.282;14.282;2023-01-13T01:01:44;4.47;;;3.03;;
28756;SDS011;44294;48.282;14.282;2023-01-13T01:04:31;5.77;;;3.17;;
28756;SDS011;44294;48.282;14.282;2023-01-13T01:07:18;4.00;;;2.87;;
28756;SDS011;44294;48.282;14.282;2023-01-13T01:10:06;4.70;;;2.63;;
28756;SDS011;44294;48.282;14.282;2023-01-13T01:12:53;4.03;;;2.67;;
28756;SDS011;44294;48.282;14.282;2023-01-13T01:15:40;3.30;;;2.60;;
28756;SDS011;44294;48.282;14.282;2023-01-13T01:18:28;4.57;;;2.57;;
28756;SDS011;44294;48.282;14.282;2023-01-13T01:21:16;3.37;;;2.60;;
28756;SDS011;44294;48.282;14.282;2023-01-13T01:24:03;4.37;;;2.90;;
28756;SDS011;44294;48.282;14.282;2023-01-13T01:26:51;4.80;;;2.83;;
28756;SDS011;44294;48.282;14.282;2023-01-13T01:29:38;2.97;;;2.60;;
28756;SDS011;44294;48.282;14.282;2023-01-13T01:32:25;3.67;;;2.60;;
28756;SDS011;44294;48.282;14.282;2023-01-13T01:35:13;3.80;;;2.63;;
28756;SDS011;44294;48.282;14.282;2023-01-13T01:38:00;3.47;;;2.60;;
28756;SDS011;44294;48.282;14.282;2023-01-13T01:40:47;3.77;;;2.47;;
28756;SDS011;44294;48.282;14.282;2023-01-13T01:43:46;4.17;;;2.60;;
28756;SDS011;44294;48.282;14.282;2023-01-13T01:46:50;3.47;;;2.40;;
28756;SDS011;44294;48.282;14.282;2023-01-13T01:49:38;4.40;;;2.50;;
28756;SDS011;44294;48.282;14.282;2023-01-13T01:52:30;2.83;;;2.40;;
28756;SDS011;44294;48.282;14.282;2023-01-13T01:55:16;4.30;;;2.20;;
28756;SDS011;44294;48.282;14.282;2023-01-13T01:58:11;2.50;;;1.90;;
28756;SDS011;44294;48.282;14.282;2023-01-13T02:00:58;2.97;;;2.10;;
28756;SDS011;44294;48.282;14.282;2023-01-13T02:03:49;2.40;;;2.07;;
28756;SDS011;44294;48.282;14.282;2023-01-13T02:06:35;3.43;;;2.20;;
28756;SDS011;44294;48.282;14.282;2023-01-13T02:09:23;4.13;;;2.10;;
28756;SDS011;44294;48.282;14.282;2023-01-13T02:12:11;3.83;;;2.10;;
28756;SDS011;44294;48.282;14.282;2023-01-13T02:15:21;2.30;;;2.10;;
28756;SDS011;44294;48.282;14.282;2023-01-13T02:21:23;2.37;;;2.00;;
28756;SDS011;44294;48.282;14.282;2023-01-13T02:27:27;5.60;;;2.10;;
28756;SDS011;44294;48.282;14.282;2023-01-13T02:33:24;4.20;;;2.10;;
28756;SDS011;44294;48.282;14.282;2023-01-13T02:36:25;3.53;;;2.00;;
28756;SDS011;44294;48.282;14.282;2023-01-13T02:39:15;3.23;;;2.10;;
28756;SDS011;44294;48.282;14.282;2023-01-13T02:42:10;2.63;;;1.90;;
28756;SDS011;44294;48.282;14.282;2023-01-13T02:45:12;2.23;;;2.00;;
28756;SDS011;44294;48.282;14.282;2023-01-13T02:48:00;2.50;;;1.90;;
28756;SDS011;44294;48.282;14.282;2023-01-13T02:50:51;2.27;;;2.00;;
28756;SDS011;44294;48.282;14.282;2023-01-13T02:56:43;2.97;;;2.00;;
28756;SDS011;44294;48.282;14.282;2023-01-13T02:59:22;3.37;;;2.20;;
28756;SDS011;44294;48.282;14.282;2023-01-13T03:02:12;2.30;;;2.10;;
28756;SDS011;44294;48.282;14.282;2023-01-13T03:05:00;2.37;;;2.10;;
28756;SDS011;44294;48.282;14.282;2023-01-13T03:11:00;3.23;;;2.20;;
28756;SDS011;44294;48.282;14.282;2023-01-13T03:13:46;5.13;;;2.20;;
28756;SDS011;44294;48.282;14.282;2023-01-13T03:16:52;3.57;;;2.37;;
28756;SDS011;44294;48.282;14.282;2023-01-13T03:19:45;4.87;;;2.43;;
28756;SDS011;44294;48.282;14.282;2023-01-13T03:22:33;2.60;;;2.40;;
28756;SDS011;44294;48.282;14.282;2023-01-13T03:25:21;2.83;;;2.20;;
28756;SDS011;44294;48.282;14.282;2023-01-13T03:28:19;4.30;;;2.30;;
28756;SDS011;44294;48.282;14.282;2023-01-13T03:31:04;3.53;;;2.40;;
28756;SDS011;44294;48.282;14.282;2023-01-13T03:33:53;3.00;;;2.17;;
28756;SDS011;44294;48.282;14.282;2023-01-13T03:36:40;3.67;;;2.40;;
28756;SDS011;44294;48.282;14.282;2023-01-13T03:39:28;2.90;;;2.00;;
28756;SDS011;44294;48.282;14.282;2023-01-13T03:42:17;2.57;;;2.10;;
28756;SDS011;44294;48.282;14.282;2023-01-13T03:45:14;2.80;;;2.20;;
28756;SDS011;44294;48.282;14.282;2023-01-13T03:47:57;2.77;;;2.20;;
28756;SDS011;44294;48.282;14.282;2023-01-13T03:50:49;3.00;;;2.10;;
28756;SDS011;44294;48.282;14.282;2023-01-13T03:53:48;4.20;;;2.30;;
28756;SDS011;44294;48.282;14.282;2023-01-13T03:56:41;2.33;;;2.00;;
28756;SDS011;44294;48.282;14.282;2023-01-13T03:59:31;2.27;;;2.07;;
28756;SDS011;44294;48.282;14.282;2023-01-13T04:02:28;2.67;;;2.10;;
28756;SDS011;44294;48.282;14.282;2023-01-13T04:05:13;6.83;;;2.20;;
28756;SDS011;44294;48.282;14.282;2023-01-13T04:08:03;3.60;;;2.30;;
28756;SDS011;44294;48.282;14.282;2023-01-13T04:13:42;4.07;;;2.20;;
28756;SDS011;44294;48.282;14.282;2023-01-13T04:16:31;2.53;;;2.00;;
28756;SDS011;44294;48.282;14.282;2023-01-13T04:19:18;3.20;;;2.30;;
28756;SDS011;44294;48.282;14.282;2023-01-13T04:22:05;2.60;;;2.00;;
28756;SDS011;44294;48.282;14.282;2023-01-13T04:24:53;2.50;;;2.03;;
28756;SDS011;44294;48.282;14.282;2023-01-13T04:27:40;4.50;;;2.10;;
28756;SDS011;44294;48.282;14.282;2023-01-13T04:30:27;5.00;;;2.10;;
28756;SDS011;44294;48.282;14.282;2023-01-13T04:33:15;3.53;;;2.27;;
28756;SDS011;44294;48.282;14.282;2023-01-13T04:36:03;4.43;;;2.60;;
28756;SDS011;44294;48.282;14.282;2023-01-13T04:38:51;4.23;;;2.70;;
28756;SDS011;44294;48.282;14.282;2023-01-13T04:41:38;3.93;;;2.70;;
28756;SDS011;44294;48.282;14.282;2023-01-13T04:44:43;5.47;;;2.70;;
28756;SDS011;44294;48.282;14.282;2023-01-13T04:47:31;4.60;;;2.63;;
28756;SDS011;44294;48.282;14.282;2023-01-13T04:50:18;4.07;;;2.77;;
28756;SDS011;44294;48.282;14.282;2023-01-13T04:53:05;5.37;;;2.63;;
28756;SDS011;44294;48.282;14.282;2023-01-13T04:55:53;3.43;;;2.50;;
28756;SDS011;44294;48.282;14.282;2023-01-13T04:58:40;4.10;;;2.77;;
28756;SDS011;44294;48.282;14.282;2023-01-13T05:01:27;3.17;;;2.40;;
28756;SDS011;44294;48.282;14.282;2023-01-13T05:04:15;3.83;;;2.80;;
28756;SDS011;44294;48.282;14.282;2023-01-13T05:07:02;2.67;;;2.40;;
28756;SDS011;44294;48.282;14.282;2023-01-13T05:09:49;3.03;;;2.60;;
28756;SDS011;44294;48.282;14.282;2023-01-13T05:12:34;3.83;;;2.47;;
28756;SDS011;44294;48.282;14.282;2023-01-13T05:15:40;2.90;;;2.40;;
28756;SDS011;44294;48.282;14.282;2023-01-13T05:18:39;2.90;;;2.40;;
28756;SDS011;44294;48.282;14.282;2023-01-13T05:21:26;4.03;;;2.40;;
28756;SDS011;44294;48.282;14.282;2023-01-13T05:24:31;2.83;;;2.30;;
28756;SDS011;44294;48.282;14.282;2023-01-13T05:27:37;3.50;;;2.30;;
28756;SDS011;44294;48.282;14.282;2023-01-13T05:30:25;3.00;;;2.10;;
28756;SDS011;44294;48.282;14.282;2023-01-13T05:33:16;2.37;;;2.00;;
28756;SDS011;44294;48.282;14.282;2023-01-13T05:36:02;4.67;;;2.10;;
28756;SDS011;44294;48.282;14.282;2023-01-13T05:38:51;3.37;;;2.17;;
28756;SDS011;44294;48.282;14.282;2023-01-13T05:41:38;2.73;;;2.10;;
28756;SDS011;44294;48.282;14.282;2023-01-13T05:44:43;4.40;;;2.33;;
28756;SDS011;44294;48.282;14.282;2023-01-13T05:47:31;4.53;;;2.10;;
28756;SDS011;44294;48.282;14.282;2023-01-13T05:50:18;2.30;;;2.10;;
28756;SDS011;44294;48.282;14.282;2023-01-13T05:53:05;3.53;;;2.20;;
28756;SDS011;44294;48.282;14.282;2023-01-13T05:55:53;2.60;;;2.00;;
28756;SDS011;44294;48.282;14.282;2023-01-13T05:58:40;2.20;;;1.93;;
28756;SDS011;44294;48.282;14.282;2023-01-13T06:01:27;2.37;;;2.00;;
28756;SDS011;44294;48.282;14.282;2023-01-13T06:04:15;2.93;;;2.20;;
28756;SDS011;44294;48.282;14.282;2023-01-13T06:07:02;2.90;;;2.00;;
28756;SDS011;44294;48.282;14.282;2023-01-13T06:09:49;4.10;;;2.27;;
28756;SDS011;44294;48.282;14.282;2023-01-13T06:12:36;2.90;;;2.20;;
28756;SDS011;44294;48.282;14.282;2023-01-13T06:15:24;4.50;;;2.70;;
28756;SDS011;44294;48.282;14.282;2023-01-13T06:18:11;4.03;;;2.90;;
28756;SDS011;44294;48.282;14.282;2023-01-13T06:20:59;3.63;;;2.80;;
28756;SDS011;44294;48.282;14.282;2023-01-13T06:23:46;3.93;;;2.90;;
28756;SDS011;44294;48.282;14.282;2023-01-13T06:26:37;4.97;;;2.90;;
28756;SDS011;44294;48.282;14.282;2023-01-13T06:29:25;4.83;;;3.27;;
28756;SDS011;44294;48.282;14.282;2023-01-13T06:32:17;4.37;;;3.07;;
28756;SDS011;44294;48.282;14.282;2023-01-13T06:35:05;4.53;;;3.10;;
28756;SDS011;44294;48.282;14.282;2023-01-13T06:37:53;4.13;;;3.13;;
28756;SDS011;44294;48.282;14.282;2023-01-13T06:40:42;5.13;;;3.40;;
28756;SDS011;44294;48.282;14.282;2023-01-13T06:43:29;5.50;;;3.50;;
28756;SDS011;44294;48.282;14.282;2023-01-13T06:46:17;5.27;;;3.40;;
28756;SDS011;44294;48.282;14.282;2023-01-13T06:49:04;5.43;;;3.80;;
28756;SDS011;44294;48.282;14.282;2023-01-13T06:51:52;7.63;;;3.63;;
28756;SDS011;44294;48.282;14.282;2023-01-13T06:54:39;5.73;;;3.33;;
28756;SDS011;44294;48.282;14.282;2023-01-13T06:57:27;5.30;;;3.00;;
28756;SDS011;44294;48.282;14.282;2023-01-13T07:00:14;4.97;;;2.80;;
28756;SDS011;44294;48.282;14.282;2023-01-13T07:03:08;3.10;;;2.70;;
28756;SDS011;44294;48.282;14.282;2023-01-13T07:05:56;4.37;;;2.90;;
28756;SDS011;44294;48.282;14.282;2023-01-13T07:08:44;3.87;;;3.07;;
28756;SDS011;44294;48.282;14.282;2023-01-13T07:11:31;5.10;;;3.50;;
28756;SDS011;44294;48.282;14.282;2023-01-13T07:14:18;7.07;;;3.50;;
28756;SDS011;44294;48.282;14.282;2023-01-13T07:17:23;7.37;;;3.63;;
28756;SDS011;44294;48.282;14.282;2023-01-13T07:20:11;9.63;;;4.30;;
28756;SDS011;44294;48.282;14.282;2023-01-13T07:22:58;7.30;;;3.73;;
28756;SDS011;44294;48.282;14.282;2023-01-13T07:25:45;6.60;;;3.90;;
28756;SDS011;44294;48.282;14.282;2023-01-13T07:28:33;8.60;;;3.90;;
28756;SDS011;44294;48.282;14.282;2023-01-13T07:31:21;9.43;;;4.50;;
28756;SDS011;44294;48.282;14.282;2023-01-13T07:34:08;9.00;;;4.57;;
28756;SDS011;44294;48.282;14.282;2023-01-13T07:36:55;9.23;;;4.40;;
28756;SDS011;44294;48.282;14.282;2023-01-13T07:39:42;7.70;;;4.30;;
28756;SDS011;44294;48.282;14.282;2023-01-13T07:42:30;11.63;;;4.93;;
28756;SDS011;44294;48.282;14.282;2023-01-13T07:45:36;8.53;;;4.53;;
28756;SDS011;44294;48.282;14.282;2023-01-13T07:48:23;9.07;;;4.90;;
28756;SDS011;44294;48.282;14.282;2023-01-13T07:51:11;8.77;;;5.07;;
28756;SDS011;44294;48.282;14.282;2023-01-13T07:53:58;7.90;;;5.10;;
28756;SDS011;44294;48.282;14.282;2023-01-13T07:56:45;13.67;;;5.43;;
28756;SDS011;44294;48.282;14.282;2023-01-13T07:59:33;9.37;;;5.07;;
28756;SDS011;44294;48.282;14.282;2023-01-13T08:02:20;8.73;;;5.00;;
28756;SDS011;44294;48.282;14.282;2023-01-13T08:05:07;8.83;;;4.90;;
28756;SDS011;44294;48.282;14.282;2023-01-13T08:07:55;7.60;;;4.50;;
28756;SDS011;44294;48.282;14.282;2023-01-13T08:10:42;12.13;;;5.23;;
28756;SDS011;44294;48.282;14.282;2023-01-13T08:13:30;7.57;;;4.70;;
28756;SDS011;44294;48.282;14.282;2023-01-13T08:16:17;8.87;;;5.63;;
28756;SDS011;44294;48.282;14.282;2023-01-13T08:19:04;9.03;;;5.30;;
28756;SDS011;44294;48.282;14.282;2023-01-13T08:21:52;17.17;;;9.80;;
28756;SDS011;44294;48.282;14.282;2023-01-13T08:24:39;17.73;;;9.57;;
28756;SDS011;44294;48.282;14.282;2023-01-13T08:27:26;28.00;;;15.80;;
28756;SDS011;44294;48.282;14.282;2023-01-13T08:30:14;18.07;;;10.20;;
28756;SDS011;44294;48.282;14.282;2023-01-13T08:33:04;19.60;;;8.77;;
28756;SDS011;44294;48.282;14.282;2023-01-13T08:35:50;17.80;;;9.57;;
28756;SDS011;44294;48.282;14.282;2023-01-13T08:38:40;19.87;;;10.73;;
28756;SDS011;44294;48.282;14.282;2023-01-13T08:41:27;20.70;;;10.93;;
28756;SDS011;44294;48.282;14.282;2023-01-13T08:44:32;23.23;;;11.43;;
28756;SDS011;44294;48.282;14.282;2023-01-13T08:47:20;16.13;;;9.03;;
28756;SDS011;44294;48.282;14.282;2023-01-13T08:50:07;26.70;;;12.93;;
28756;SDS011;44294;48.282;14.282;2023-01-13T08:52:55;15.33;;;8.97;;
28756;SDS011;44294;48.282;14.282;2023-01-13T08:55:42;20.60;;;10.33;;
28756;SDS011;44294;48.282;14.282;2023-01-13T08:58:30;20.40;;;10.40;;
28756;SDS011;44294;48.282;14.282;2023-01-13T09:01:19;22.63;;;10.30;;
28756;SDS011;44294;48.282;14.282;2023-01-13T09:04:08;24.93;;;10.47;;
28756;SDS011;44294;48.282;14.282;2023-01-13T09:06:55;21.80;;;10.40;;
28756;SDS011;44294;48.282;14.282;2023-01-13T09:09:42;23.57;;;12.30;;
28756;SDS011;44294;48.282;14.282;2023-01-13T09:12:29;25.57;;;12.40;;
28756;SDS011;44294;48.282;14.282;2023-01-13T09:15:35;23.20;;;11.17;;
28756;SDS011;44294;48.282;14.282;2023-01-13T09:18:22;22.43;;;11.10;;
28756;SDS011;44294;48.282;14.282;2023-01-13T09:21:09;19.60;;;9.80;;
28756;SDS011;44294;48.282;14.282;2023-01-13T09:23:57;21.47;;;10.00;;
28756;SDS011;44294;48.282;14.282;2023-01-13T09:26:44;22.00;;;9.63;;
28756;SDS011;44294;48.282;14.282;2023-01-13T09:29:32;24.33;;;10.13;;
28756;SDS011;44294;48.282;14.282;2023-01-13T09:32:19;17.63;;;8.67;;
28756;SDS011;44294;48.282;14.282;2023-01-13T09:35:06;15.33;;;9.10;;
28756;SDS011;44294;48.282;14.282;2023-01-13T09:37:54;16.50;;;8.43;;
28756;SDS011;44294;48.282;14.282;2023-01-13T09:40:41;13.70;;;7.67;;
28756;SDS011;44294;48.282;14.282;2023-01-13T09:43:30;10.70;;;6.50;;
28756;SDS011;44294;48.282;14.282;2023-01-13T09:46:36;15.30;;;6.50;;
28756;SDS011;44294;48.282;14.282;2023-01-13T09:49:34;8.50;;;5.33;;
28756;SDS011;44294;48.282;14.282;2023-01-13T09:52:22;11.13;;;5.70;;
28756;SDS011;44294;48.282;14.282;2023-01-13T09:55:16;7.97;;;5.30;;
28756;SDS011;44294;48.282;14.282;2023-01-13T09:58:10;12.67;;;5.40;;
28756;SDS011;44294;48.282;14.282;2023-01-13T10:03:54;11.47;;;5.23;;
28756;SDS011;44294;48.282;14.282;2023-01-13T10:06:41;8.50;;;5.00;;
28756;SDS011;44294;48.282;14.282;2023-01-13T10:09:41;9.83;;;4.90;;
28756;SDS011;44294;48.282;14.282;2023-01-13T10:12:23;11.90;;;4.43;;
28756;SDS011;44294;48.282;14.282;2023-01-13T10:15:29;8.03;;;5.00;;
28756;SDS011;44294;48.282;14.282;2023-01-13T10:21:16;10.33;;;4.73;;
28756;SDS011;44294;48.282;14.282;2023-01-13T10:24:51;9.30;;;5.33;;
28756;SDS011;44294;48.282;14.282;2023-01-13T10:26:52;9.10;;;5.50;;
28756;SDS011;44294;48.282;14.282;2023-01-13T10:29:38;13.23;;;6.17;;
28756;SDS011;44294;48.282;14.282;2023-01-13T10:32:26;9.43;;;5.93;;
28756;SDS011;44294;48.282;14.282;2023-01-13T10:35:13;12.33;;;5.80;;
28756;SDS011;44294;48.282;14.282;2023-01-13T10:38:00;15.07;;;7.40;;
28756;SDS011;44294;48.282;14.282;2023-01-13T10:40:53;16.80;;;7.83;;
28756;SDS011;44294;48.282;14.282;2023-01-13T10:43:37;13.83;;;7.43;;
28756;SDS011;44294;48.282;14.282;2023-01-13T10:46:24;15.57;;;8.03;;
28756;SDS011;44294;48.282;14.282;2023-01-13T10:52:29;18.10;;;8.27;;
28756;SDS011;44294;48.282;14.282;2023-01-13T10:55:02;16.13;;;7.63;;
28756;SDS011;44294;48.282;14.282;2023-01-13T10:57:51;13.73;;;7.90;;
28756;SDS011;44294;48.282;14.282;2023-01-13T11:00:38;20.93;;;8.87;;
28756;SDS011;44294;48.282;14.282;2023-01-13T11:03:29;17.43;;;8.80;;
28756;SDS011;44294;48.282;14.282;2023-01-13T11:06:22;14.37;;;8.10;;
28756;SDS011;44294;48.282;14.282;2023-01-13T11:09:09;16.20;;;8.33;;
28756;SDS011;44294;48.282;14.282;2023-01-13T11:11:58;15.37;;;8.00;;
28756;SDS011;44294;48.282;14.282;2023-01-13T11:14:45;16.57;;;7.90;;
28756;SDS011;44294;48.282;14.282;2023-01-13T11:17:35;14.93;;;7.60;;
28756;SDS011;44294;48.282;14.282;2023-01-13T11:20:24;16.63;;;7.80;;
28756;SDS011;44294;48.282;14.282;2023-01-13T11:23:19;17.77;;;8.47;;
28756;SDS011;44294;48.282;14.282;2023-01-13T11:26:19;15.40;;;7.80;;
28756;SDS011;44294;48.282;14.282;2023-01-13T11:29:14;14.53;;;7.40;;
28756;SDS011;44294;48.282;14.282;2023-01-13T11:31:53;15.30;;;7.10;;
28756;SDS011;44294;48.282;14.282;2023-01-13T11:34:41;14.27;;;7.30;;
28756;SDS011;44294;48.282;14.282;2023-01-13T11:37:31;16.00;;;7.00;;
28756;SDS011;44294;48.282;14.282;2023-01-13T11:40:28;14.17;;;7.43;;
28756;SDS011;44294;48.282;14.282;2023-01-13T11:46:06;13.13;;;7.40;;
28756;SDS011;44294;48.282;14.282;2023-01-13T11:48:54;11.20;;;6.80;;
28756;SDS011;44294;48.282;14.282;2023-01-13T11:51:45;11.67;;;6.20;;
28756;SDS011;44294;48.282;14.282;2023-01-13T11:54:34;10.23;;;5.90;;
28756;SDS011;44294;48.282;14.282;2023-01-13T11:57:27;9.70;;;5.20;;
28756;SDS011;44294;48.282;14.282;2023-01-13T12:00:26;7.80;;;4.90;;
28756;SDS011;44294;48.282;14.282;2023-01-13T12:06:13;7.20;;;4.90;;
28756;SDS011;44294;48.282;14.282;2023-01-13T12:12:03;7.30;;;4.90;;
28756;SDS011;44294;48.282;14.282;2023-01-13T12:24:03;8.43;;;4.53;;
28756;SDS011;44294;48.282;14.282;2023-01-13T12:26:54;8.00;;;4.67;;
28756;SDS011;44294;48.282;14.282;2023-01-13T12:29:42;8.90;;;5.10;;
28756;SDS011;44294;48.282;14.282;2023-01-13T12:32:34;8.33;;;4.83;;
28756;SDS011;44294;48.282;14.282;2023-01-13T12:36:26;8.23;;;5.20;;
28756;SDS011;44294;48.282;14.282;2023-01-13T12:44:02;8.57;;;4.90;;
28756;SDS011;44294;48.282;14.282;2023-01-13T12:47:07;9.47;;;5.60;;
28756;SDS011;44294;48.282;14.282;2023-01-13T12:50:01;10.40;;;5.40;;
28756;SDS011;44294;48.282;14.282;2023-01-13T12:52:43;9.73;;;6.10;;
28756;SDS011;44294;48.282;14.282;2023-01-13T12:55:33;9.33;;;5.50;;
28756;SDS011;44294;48.282;14.282;2023-01-13T12:58:27;7.83;;;5.13;;
28756;SDS011;44294;48.282;14.282;2023-01-13T13:01:15;9.10;;;5.53;;
28756;SDS011;44294;48.282;14.282;2023-01-13T13:04:07;9.20;;;5.70;;
28756;SDS011;44294;48.282;14.282;2023-01-13T13:07:02;9.00;;;5.60;;
28756;SDS011;44294;48.282;14.282;2023-01-13T13:09:49;8.73;;;5.60;;
28756;SDS011;44294;48.282;14.282;2023-01-13T13:15:39;8.50;;;5.40;;
28756;SDS011;44294;48.282;14.282;2023-01-13T13:18:27;8.73;;;5.30;;
28756;SDS011;44294;48.282;14.282;2023-01-13T13:21:15;10.27;;;5.37;;
28756;SDS011;44294;48.282;14.282;2023-01-13T13:24:03;7.57;;;5.20;;
28756;SDS011;44294;48.282;14.282;2023-01-13T13:26:51;7.47;;;5.20;;
28756;SDS011;44294;48.282;14.282;2023-01-13T13:29:42;6.70;;;4.90;;
28756;SDS011;44294;48.282;14.282;2023-01-13T13:41:47;14.73;;;8.03;;
28756;SDS011;44294;48.282;14.282;2023-01-13T13:44:52;19.27;;;10.23;;
28756;SDS011;44294;48.282;14.282;2023-01-13T13:47:59;16.77;;;9.03;;
28756;SDS011;44294;48.282;14.282;2023-01-13T13:50:49;17.97;;;10.00;;
28756;SDS011;44294;48.282;14.282;2023-01-13T13:53:39;15.80;;;9.10;;
28756;SDS011;44294;48.282;14.282;2023-01-13T13:56:27;16.77;;;8.77;;
28756;SDS011;44294;48.282;14.282;2023-01-13T13:59:22;13.47;;;8.00;;
28756;SDS011;44294;48.282;14.282;2023-01-13T14:02:18;13.93;;;8.03;;
28756;SDS011;44294;48.282;14.282;2023-01-13T14:05:06;12.70;;;7.47;;
28756;SDS011;44294;48.282;14.282;2023-01-13T14:07:57;12.07;;;7.00;;
28756;SDS011;44294;48.282;14.282;2023-01-13T14:10:45;15.70;;;7.50;;
28756;SDS011;44294;48.282;14.282;2023-01-13T14:13:32;17.30;;;7.90;;
28756;SDS011;44294;48.282;14.282;2023-01-13T14:16:19;14.17;;;8.53;;
28756;SDS011;44294;48.282;14.282;2023-01-13T14:19:27;15.17;;;8.13;;
28756;SDS011;44294;48.282;14.282;2023-01-13T14:22:14;12.50;;;7.70;;
28756;SDS011;44294;48.282;14.282;2023-01-13T14:25:04;14.07;;;8.43;;
28756;SDS011;44294;48.282;14.282;2023-01-13T14:27:51;15.50;;;8.10;;
28756;SDS011;44294;48.282;14.282;2023-01-13T14:30:38;13.40;;;7.70;;
28756;SDS011;44294;48.282;14.282;2023-01-13T14:33:33;13.37;;;8.00;;
28756;SDS011;44294;48.282;14.282;2023-01-13T14:36:23;12.67;;;7.10;;
28756;SDS011;44294;48.282;14.282;2023-01-13T14:42:02;12.83;;;7.17;;
28756;SDS011;44294;48.282;14.282;2023-01-13T14:44:50;8.83;;;5.97;;
28756;SDS011;44294;48.282;14.282;2023-01-13T14:47:37;10.23;;;5.90;;
28756;SDS011;44294;48.282;14.282;2023-01-13T14:50:32;7.93;;;5.60;;
28756;SDS011;44294;48.282;14.282;2023-01-13T14:53:25;12.33;;;6.37;;
28756;SDS011;44294;48.282;14.282;2023-01-13T15:10:58;10.83;;;6.33;;
28756;SDS011;44294;48.282;14.282;2023-01-13T15:13:47;12.13;;;6.83;;
28756;SDS011;44294;48.282;14.282;2023-01-13T15:16:35;11.53;;;7.27;;
28756;SDS011;44294;48.282;14.282;2023-01-13T15:19:22;14.17;;;9.20;;
28756;SDS011;44294;48.282;14.282;2023-01-13T15:22:10;15.43;;;9.80;;
28756;SDS011;44294;48.282;14.282;2023-01-13T15:24:57;14.13;;;8.90;;
28756;SDS011;44294;48.282;14.282;2023-01-13T15:27:45;13.57;;;8.10;;
28756;SDS011;44294;48.282;14.282;2023-01-13T15:30:34;11.73;;;6.97;;
28756;SDS011;44294;48.282;14.282;2023-01-13T15:33:21;9.73;;;6.30;;
28756;SDS011;44294;48.282;14.282;2023-01-13T15:36:16;10.37;;;6.40;;
28756;SDS011;44294;48.282;14.282;2023-01-13T15:38:58;8.67;;;5.63;;
28756;SDS011;44294;48.282;14.282;2023-01-13T15:41:45;10.73;;;5.80;;
28756;SDS011;44294;48.282;14.282;2023-01-13T15:44:51;10.63;;;6.73;;
28756;SDS011;44294;48.282;14.282;2023-01-13T15:47:56;20.40;;;11.90;;
28756;SDS011;44294;48.282;14.282;2023-01-13T15:50:44;12.23;;;7.70;;
28756;SDS011;44294;48.282;14.282;2023-01-13T15:53:32;15.30;;;7.87;;
28756;SDS011;44294;48.282;14.282;2023-01-13T15:56:24;10.63;;;6.20;;
28756;SDS011;44294;48.282;14.282;2023-01-13T15:59:15;7.97;;;5.47;;
28756;SDS011;44294;48.282;14.282;2023-01-13T16:02:07;11.43;;;5.60;;
28756;SDS011;44294;48.282;14.282;2023-01-13T16:04:52;7.00;;;5.07;;
28756;SDS011;44294;48.282;14.282;2023-01-13T16:07:40;9.80;;;5.73;;
28756;SDS011;44294;48.282;14.282;2023-01-13T16:10:27;11.53;;;5.87;;
28756;SDS011;44294;48.282;14.282;2023-01-13T16:13:15;11.07;;;6.27;;
28756;SDS011;44294;48.282;14.282;2023-01-13T16:16:03;16.50;;;8.30;;
28756;SDS011;44294;48.282;14.282;2023-01-13T16:18:52;18.80;;;8.30;;
28756;SDS011;44294;48.282;14.282;2023-01-13T16:21:39;16.57;;;7.83;;
28756;SDS011;44294;48.282;14.282;2023-01-13T16:24:27;15.07;;;7.57;;
28756;SDS011;44294;48.282;14.282;2023-01-13T16:27:18;4.87;;;3.43;;
28756;SDS011;44294;48.282;14.282;2023-01-13T16:30:06;2.20;;;2.00;;
28756;SDS011;44294;48.282;14.282;2023-01-13T16:32:53;5.83;;;2.23;;
28756;SDS011;44294;48.282;14.282;2023-01-13T16:35:41;3.10;;;2.10;;
28756;SDS011;44294;48.282;14.282;2023-01-13T16:38:28;2.30;;;1.63;;
28756;SDS011;44294;48.282;14.282;2023-01-13T16:41:16;1.40;;;1.30;;
28756;SDS011;44294;48.282;14.282;2023-01-13T16:44:04;1.40;;;1.30;;
28756;SDS011;44294;48.282;14.282;2023-01-13T16:46:52;1.70;;;1.33;;
28756;SDS011;44294;48.282;14.282;2023-01-13T16:49:39;1.90;;;1.50;;
28756;SDS011;44294;48.282;14.282;2023-01-13T16:52:26;27.73;;;15.83;;
28756;SDS011;44294;48.282;14.282;2023-01-13T16:55:13;7.83;;;4.93;;
28756;SDS011;44294;48.282;14.282;2023-01-13T16:58:01;2.93;;;2.10;;
28756;SDS011;44294;48.282;14.282;2023-01-13T17:00:48;1.60;;;1.50;;
28756;SDS011;44294;48.282;14.282;2023-01-13T17:03:37;1.10;;;1.10;;
28756;SDS011;44294;48.282;14.282;2023-01-13T17:09:17;1.60;;;1.50;;
28756;SDS011;44294;48.282;14.282;2023-01-13T17:12:05;1.50;;;1.40;;
28756;SDS011;44294;48.282;14.282;2023-01-13T17:14:52;2.03;;;1.30;;
28756;SDS011;44294;48.282;14.282;2023-01-13T17:17:40;1.70;;;1.40;;
28756;SDS011;44294;48.282;14.282;2023-01-13T17:20:28;1.80;;;1.50;;
28756;SDS011;44294;48.282;14.282;2023-01-13T17:23:15;2.03;;;1.70;;
28756;SDS011;44294;48.282;14.282;2023-01-13T17:26:03;1.80;;;1.70;;
28756;SDS011;44294;48.282;14.282;2023-01-13T17:28:50;1.80;;;1.70;;
28756;SDS011;44294;48.282;14.282;2023-01-13T17:31:37;2.47;;;1.70;;
28756;SDS011;44294;48.282;14.282;2023-01-13T17:34:25;1.97;;;1.70;;
28756;SDS011;44294;48.282;14.282;2023-01-13T17:37:12;2.00;;;1.67;;
28756;SDS011;44294;48.282;14.282;2023-01-13T17:39:59;2.27;;;1.80;;
28756;SDS011;44294;48.282;14.282;2023-01-13T17:42:47;1.70;;;1.60;;
28756;SDS011;44294;48.282;14.282;2023-01-13T17:45:34;2.03;;;1.60;;
28756;SDS011;44294;48.282;14.282;2023-01-13T17:48:23;2.13;;;1.80;;
28756;SDS011;44294;48.282;14.282;2023-01-13T17:51:12;3.43;;;2.10;;
28756;SDS011;44294;48.282;14.282;2023-01-13T17:53:59;2.43;;;2.10;;
28756;SDS011;44294;48.282;14.282;2023-01-13T17:56:47;3.23;;;2.07;;
28756;SDS011;44294;48.282;14.282;2023-01-13T17:59:34;2.90;;;1.80;;
28756;SDS011;44294;48.282;14.282;2023-01-13T18:02:21;2.43;;;1.80;;